AAL124 KLGA-KBOS
Flight info
| Callsign | AAL124 |
|---|---|
| Flight time | 0h 42m |
| Altitude | 21000 |
| Route | MERIT ROBUC3 |
| Aircraft | B738/M-SDE2E3FGHIRWXY/LB1 |
Departure
| Time | 2026-05-05 00:07 |
|---|---|
| Airport | LaGuardia Airport (KLGA) |
Arrival
| Time | 2026-05-05 00:49 |
|---|---|
| Airport | Boston Logan International Airport (KBOS) |
| Time | Latitude | Longitude | Altitude | Speed | Heading |
|---|---|---|---|---|---|
| 2026-05-04 23:40 | 40.77623 | -73.87329 | 19 ft | 0 kts | 177° |
| 2026-05-04 23:57 | 40.77626 | -73.87329 | 19 ft | 3 kts | 177° |
| 2026-05-04 23:57 | 40.77652 | -73.87330 | 20 ft | 4 kts | 183° |
| 2026-05-04 23:57 | 40.77677 | -73.87322 | 9 ft | 4 kts | 219° |
| 2026-05-04 23:58 | 40.77689 | -73.87296 | 22 ft | 3 kts | 270° |
| 2026-05-04 23:58 | 40.77689 | -73.87285 | 22 ft | 0 kts | 274° |
| 2026-05-05 00:01 | 40.77689 | -73.87286 | 19 ft | 1 kts | 274° |
| 2026-05-05 00:01 | 40.77692 | -73.87314 | 19 ft | 6 kts | 280° |
| 2026-05-05 00:02 | 40.77696 | -73.87381 | 19 ft | 8 kts | 269° |
| 2026-05-05 00:02 | 40.77713 | -73.87440 | 19 ft | 8 kts | 331° |
| 2026-05-05 00:02 | 40.77770 | -73.87411 | 16 ft | 12 kts | 43° |
| 2026-05-05 00:02 | 40.77814 | -73.87395 | 13 ft | 1 kts | 338° |
| 2026-05-05 00:03 | 40.77827 | -73.87408 | 13 ft | 7 kts | 314° |
| 2026-05-05 00:03 | 40.77870 | -73.87494 | 15 ft | 12 kts | 303° |
| 2026-05-05 00:03 | 40.77914 | -73.87586 | 17 ft | 12 kts | 301° |
| 2026-05-05 00:03 | 40.77957 | -73.87677 | 17 ft | 12 kts | 302° |
| 2026-05-05 00:04 | 40.78002 | -73.87774 | 17 ft | 13 kts | 302° |
| 2026-05-05 00:04 | 40.78073 | -73.87838 | 17 ft | 13 kts | 346° |
| 2026-05-05 00:04 | 40.78132 | -73.87855 | 19 ft | 0 kts | 347° |
| 2026-05-05 00:05 | 40.78138 | -73.87857 | 17 ft | 2 kts | 347° |
| 2026-05-05 00:06 | 40.78155 | -73.87862 | 17 ft | 3 kts | 347° |
| 2026-05-05 00:06 | 40.78188 | -73.87864 | 18 ft | 8 kts | 14° |
| 2026-05-05 00:06 | 40.78213 | -73.87816 | 18 ft | 2 kts | 120° |
| 2026-05-05 00:06 | 40.78167 | -73.87724 | 16 ft | 38 kts | 122° |
| 2026-05-05 00:07 | 40.77889 | -73.87138 | 14 ft | 110 kts | 122° |
| 2026-05-05 00:07 | 40.77379 | -73.86050 | 85 ft | 161 kts | 124° |
| 2026-05-05 00:07 | 40.76812 | -73.84816 | 736 ft | 164 kts | 125° |
| 2026-05-05 00:07 | 40.76191 | -73.83481 | 1388 ft | 181 kts | 128° |
| 2026-05-05 00:08 | 40.75620 | -73.81941 | 2053 ft | 202 kts | 108° |
| 2026-05-05 00:08 | 40.75744 | -73.79986 | 2491 ft | 231 kts | 66° |
| 2026-05-05 00:08 | 40.76828 | -73.78355 | 2864 ft | 247 kts | 32° |
| 2026-05-05 00:08 | 40.78287 | -73.77088 | 3514 ft | 255 kts | 31° |
| 2026-05-05 00:09 | 40.79745 | -73.75772 | 4399 ft | 253 kts | 30° |
| 2026-05-05 00:09 | 40.81335 | -73.74645 | 4924 ft | 270 kts | 22° |
| 2026-05-05 00:09 | 40.83086 | -73.73554 | 5438 ft | 283 kts | 22° |
| 2026-05-05 00:09 | 40.84872 | -73.72411 | 6265 ft | 286 kts | 22° |
| 2026-05-05 00:10 | 40.86652 | -73.71236 | 7120 ft | 286 kts | 23° |
| 2026-05-05 00:10 | 40.88430 | -73.70029 | 7952 ft | 289 kts | 27° |
| 2026-05-05 00:10 | 40.90087 | -73.68484 | 8751 ft | 293 kts | 35° |
| 2026-05-05 00:10 | 40.91660 | -73.66756 | 9588 ft | 296 kts | 37° |
| 2026-05-05 00:11 | 40.93224 | -73.64968 | 10289 ft | 301 kts | 37° |
| 2026-05-05 00:11 | 40.94858 | -73.63095 | 10524 ft | 323 kts | 37° |
| 2026-05-05 00:11 | 40.96621 | -73.61082 | 10699 ft | 346 kts | 37° |
| 2026-05-05 00:11 | 40.98475 | -73.58971 | 10870 ft | 366 kts | 37° |
| 2026-05-05 00:12 | 41.00439 | -73.56737 | 11304 ft | 377 kts | 37° |
| 2026-05-05 00:12 | 41.02439 | -73.54462 | 11934 ft | 382 kts | 37° |
| 2026-05-05 00:12 | 41.04465 | -73.52160 | 12611 ft | 386 kts | 37° |
| 2026-05-05 00:12 | 41.06518 | -73.49830 | 13315 ft | 390 kts | 37° |
| 2026-05-05 00:13 | 41.08595 | -73.47475 | 13957 ft | 396 kts | 37° |
| 2026-05-05 00:13 | 41.10696 | -73.45091 | 14614 ft | 399 kts | 37° |
| 2026-05-05 00:13 | 41.12810 | -73.42690 | 15325 ft | 401 kts | 37° |
| 2026-05-05 00:13 | 41.14937 | -73.40273 | 16002 ft | 405 kts | 37° |
| 2026-05-05 00:14 | 41.17088 | -73.37828 | 16643 ft | 409 kts | 37° |
| 2026-05-05 00:14 | 41.19258 | -73.35358 | 17297 ft | 413 kts | 37° |
| 2026-05-05 00:14 | 41.21443 | -73.32864 | 17959 ft | 416 kts | 38° |
| 2026-05-05 00:14 | 41.23450 | -73.30063 | 18573 ft | 424 kts | 51° |
| 2026-05-05 00:15 | 41.24918 | -73.26641 | 19207 ft | 429 kts | 64° |
| 2026-05-05 00:15 | 41.25900 | -73.22880 | 19809 ft | 434 kts | 73° |
| 2026-05-05 00:15 | 41.26605 | -73.18965 | 20348 ft | 438 kts | 76° |
| 2026-05-05 00:15 | 41.27244 | -73.14993 | 20843 ft | 442 kts | 76° |
| 2026-05-05 00:16 | 41.27918 | -73.10967 | 20896 ft | 452 kts | 75° |
| 2026-05-05 00:16 | 41.28726 | -73.06885 | 20905 ft | 461 kts | 70° |
| 2026-05-05 00:16 | 41.29770 | -73.02814 | 20928 ft | 469 kts | 68° |
| 2026-05-05 00:16 | 41.30871 | -72.98734 | 20917 ft | 468 kts | 68° |
| 2026-05-05 00:17 | 41.31982 | -72.94687 | 20912 ft | 465 kts | 67° |
| 2026-05-05 00:17 | 41.33092 | -72.90654 | 20909 ft | 463 kts | 68° |
| 2026-05-05 00:17 | 41.34193 | -72.86631 | 20917 ft | 463 kts | 68° |
| 2026-05-05 00:17 | 41.35288 | -72.82609 | 20915 ft | 462 kts | 68° |
| 2026-05-05 00:18 | 41.36377 | -72.78583 | 20911 ft | 463 kts | 68° |
| 2026-05-05 00:18 | 41.37464 | -72.74543 | 20914 ft | 464 kts | 68° |
| 2026-05-05 00:18 | 41.38550 | -72.70500 | 20907 ft | 464 kts | 68° |
| 2026-05-05 00:18 | 41.39635 | -72.66448 | 20922 ft | 465 kts | 68° |
| 2026-05-05 00:19 | 41.40720 | -72.62392 | 20928 ft | 465 kts | 68° |
| 2026-05-05 00:19 | 41.41805 | -72.58329 | 20928 ft | 466 kts | 68° |
| 2026-05-05 00:19 | 41.42889 | -72.54263 | 20926 ft | 466 kts | 68° |
| 2026-05-05 00:19 | 41.43971 | -72.50198 | 20928 ft | 466 kts | 68° |
| 2026-05-05 00:20 | 41.45053 | -72.46130 | 20928 ft | 466 kts | 68° |
| 2026-05-05 00:20 | 41.46133 | -72.42060 | 20925 ft | 466 kts | 68° |
| 2026-05-05 00:20 | 41.47207 | -72.38005 | 20911 ft | 458 kts | 68° |
| 2026-05-05 00:20 | 41.48239 | -72.34091 | 20900 ft | 438 kts | 68° |
| 2026-05-05 00:21 | 41.49228 | -72.30340 | 20899 ft | 420 kts | 68° |
| 2026-05-05 00:21 | 41.50177 | -72.26740 | 20904 ft | 404 kts | 68° |
| 2026-05-05 00:21 | 41.51107 | -72.23216 | 20914 ft | 403 kts | 68° |
| 2026-05-05 00:21 | 41.52043 | -72.19665 | 20933 ft | 407 kts | 68° |
| 2026-05-05 00:22 | 41.52981 | -72.16093 | 20913 ft | 409 kts | 68° |
| 2026-05-05 00:22 | 41.53921 | -72.12504 | 20920 ft | 410 kts | 68° |
| 2026-05-05 00:22 | 41.54859 | -72.08915 | 20921 ft | 410 kts | 68° |
| 2026-05-05 00:22 | 41.55796 | -72.05325 | 20916 ft | 409 kts | 68° |
| 2026-05-05 00:23 | 41.56731 | -72.01739 | 20912 ft | 409 kts | 68° |
| 2026-05-05 00:23 | 41.57664 | -71.98158 | 20913 ft | 408 kts | 68° |
| 2026-05-05 00:23 | 41.58580 | -71.94632 | 20876 ft | 407 kts | 68° |
| 2026-05-05 00:23 | 41.59513 | -71.91042 | 20457 ft | 409 kts | 68° |
| 2026-05-05 00:24 | 41.60456 | -71.87403 | 19966 ft | 408 kts | 68° |
| 2026-05-05 00:24 | 41.61371 | -71.83866 | 19464 ft | 408 kts | 69° |
| 2026-05-05 00:24 | 41.62296 | -71.80285 | 18940 ft | 407 kts | 69° |
| 2026-05-05 00:24 | 41.63217 | -71.76716 | 18410 ft | 406 kts | 69° |
| 2026-05-05 00:25 | 41.64125 | -71.73187 | 18192 ft | 397 kts | 69° |
| 2026-05-05 00:25 | 41.65015 | -71.69725 | 17974 ft | 390 kts | 69° |
| 2026-05-05 00:25 | 41.65888 | -71.66329 | 17787 ft | 383 kts | 69° |
| 2026-05-05 00:25 | 41.66743 | -71.62998 | 17725 ft | 374 kts | 69° |
| 2026-05-05 00:26 | 41.67575 | -71.59748 | 17589 ft | 365 kts | 69° |
| 2026-05-05 00:26 | 41.68415 | -71.56575 | 17274 ft | 361 kts | 67° |
| 2026-05-05 00:26 | 41.69329 | -71.53464 | 16906 ft | 358 kts | 66° |
| 2026-05-05 00:26 | 41.70257 | -71.50376 | 16545 ft | 356 kts | 66° |
| 2026-05-05 00:27 | 41.71169 | -71.47300 | 16186 ft | 355 kts | 66° |
| 2026-05-05 00:27 | 41.72066 | -71.44236 | 15825 ft | 353 kts | 67° |
| 2026-05-05 00:27 | 41.73066 | -71.41250 | 15463 ft | 350 kts | 59° |
| 2026-05-05 00:27 | 41.74281 | -71.38438 | 15114 ft | 348 kts | 56° |
| 2026-05-05 00:28 | 41.75536 | -71.35670 | 14752 ft | 347 kts | 57° |
| 2026-05-05 00:28 | 41.76765 | -71.32889 | 14405 ft | 347 kts | 57° |
| 2026-05-05 00:28 | 41.77972 | -71.30095 | 14040 ft | 346 kts | 58° |
| 2026-05-05 00:28 | 41.79169 | -71.27292 | 13656 ft | 346 kts | 58° |
| 2026-05-05 00:29 | 41.80361 | -71.24490 | 13262 ft | 346 kts | 58° |
| 2026-05-05 00:29 | 41.81548 | -71.21699 | 12896 ft | 344 kts | 58° |
| 2026-05-05 00:29 | 41.82730 | -71.18921 | 12525 ft | 342 kts | 58° |
| 2026-05-05 00:29 | 41.83902 | -71.16159 | 12213 ft | 338 kts | 58° |
| 2026-05-05 00:30 | 41.85048 | -71.13458 | 12090 ft | 329 kts | 58° |
| 2026-05-05 00:30 | 41.86168 | -71.10828 | 11942 ft | 320 kts | 58° |
| 2026-05-05 00:30 | 41.87272 | -71.08274 | 11798 ft | 312 kts | 58° |
| 2026-05-05 00:30 | 41.88355 | -71.05771 | 11668 ft | 310 kts | 58° |
| 2026-05-05 00:31 | 41.89073 | -71.04115 | 11582 ft | 309 kts | 58° |
| 2026-05-05 00:31 | 41.90151 | -71.01623 | 11447 ft | 309 kts | 58° |
| 2026-05-05 00:31 | 41.91235 | -70.99113 | 11318 ft | 313 kts | 58° |
| 2026-05-05 00:31 | 41.92327 | -70.96581 | 11182 ft | 313 kts | 58° |
| 2026-05-05 00:32 | 41.93765 | -70.93242 | 10983 ft | 312 kts | 58° |
| 2026-05-05 00:32 | 41.94848 | -70.90723 | 10842 ft | 311 kts | 58° |
| 2026-05-05 00:32 | 41.95931 | -70.88210 | 10714 ft | 310 kts | 57° |
| 2026-05-05 00:32 | 41.96659 | -70.86513 | 10600 ft | 311 kts | 58° |
| 2026-05-05 00:33 | 41.97737 | -70.84002 | 10471 ft | 309 kts | 57° |
| 2026-05-05 00:33 | 41.98805 | -70.81506 | 10323 ft | 308 kts | 57° |
| 2026-05-05 00:33 | 41.99870 | -70.79017 | 10208 ft | 306 kts | 57° |
| 2026-05-05 00:33 | 42.00927 | -70.76562 | 10033 ft | 300 kts | 55° |
| 2026-05-05 00:34 | 42.02169 | -70.74355 | 9770 ft | 294 kts | 45° |
| 2026-05-05 00:34 | 42.03553 | -70.72344 | 9474 ft | 292 kts | 43° |
| 2026-05-05 00:34 | 42.04942 | -70.70372 | 9175 ft | 290 kts | 43° |
| 2026-05-05 00:34 | 42.06305 | -70.68389 | 8897 ft | 287 kts | 44° |
| 2026-05-05 00:35 | 42.07640 | -70.66411 | 8623 ft | 284 kts | 44° |
| 2026-05-05 00:35 | 42.08961 | -70.64442 | 8391 ft | 283 kts | 44° |
| 2026-05-05 00:35 | 42.10306 | -70.62503 | 8099 ft | 282 kts | 36° |
| 2026-05-05 00:35 | 42.11982 | -70.61265 | 7839 ft | 271 kts | 12° |
| 2026-05-05 00:36 | 42.13801 | -70.60691 | 7613 ft | 267 kts | 7° |
| 2026-05-05 00:36 | 42.15622 | -70.60206 | 7360 ft | 266 kts | 6° |
| 2026-05-05 00:36 | 42.17441 | -70.59728 | 7108 ft | 266 kts | 6° |
| 2026-05-05 00:36 | 42.19254 | -70.59244 | 6863 ft | 266 kts | 6° |
| 2026-05-05 00:37 | 42.21068 | -70.58751 | 6611 ft | 266 kts | 6° |
| 2026-05-05 00:37 | 42.22885 | -70.58252 | 6364 ft | 266 kts | 6° |
| 2026-05-05 00:37 | 42.24701 | -70.57749 | 6097 ft | 267 kts | 6° |
| 2026-05-05 00:37 | 42.26520 | -70.57243 | 5837 ft | 267 kts | 6° |
| 2026-05-05 00:38 | 42.28315 | -70.56741 | 5582 ft | 267 kts | 6° |
| 2026-05-05 00:38 | 42.30131 | -70.56233 | 5331 ft | 267 kts | 6° |
| 2026-05-05 00:38 | 42.31943 | -70.56031 | 5085 ft | 256 kts | 344° |
| 2026-05-05 00:38 | 42.33566 | -70.56903 | 5044 ft | 251 kts | 321° |
| 2026-05-05 00:39 | 42.34869 | -70.58420 | 5027 ft | 245 kts | 311° |
| 2026-05-05 00:39 | 42.36080 | -70.60018 | 5010 ft | 242 kts | 311° |
| 2026-05-05 00:39 | 42.37273 | -70.61611 | 5005 ft | 240 kts | 311° |
| 2026-05-05 00:39 | 42.38463 | -70.63199 | 5004 ft | 241 kts | 311° |
| 2026-05-05 00:40 | 42.39662 | -70.64793 | 4997 ft | 242 kts | 311° |
| 2026-05-05 00:40 | 42.40865 | -70.66389 | 4988 ft | 242 kts | 311° |
| 2026-05-05 00:40 | 42.42070 | -70.67983 | 4989 ft | 243 kts | 311° |
| 2026-05-05 00:40 | 42.43281 | -70.69582 | 4978 ft | 243 kts | 311° |
| 2026-05-05 00:41 | 42.44490 | -70.71178 | 4980 ft | 243 kts | 311° |
| 2026-05-05 00:41 | 42.45691 | -70.72775 | 4969 ft | 241 kts | 311° |
| 2026-05-05 00:41 | 42.46865 | -70.74338 | 4888 ft | 230 kts | 311° |
| 2026-05-05 00:41 | 42.47980 | -70.75808 | 4782 ft | 216 kts | 311° |
| 2026-05-05 00:42 | 42.49038 | -70.77186 | 4552 ft | 209 kts | 310° |
| 2026-05-05 00:42 | 42.50094 | -70.78548 | 4163 ft | 212 kts | 310° |
| 2026-05-05 00:42 | 42.51165 | -70.79923 | 3929 ft | 210 kts | 310° |
| 2026-05-05 00:42 | 42.52216 | -70.81258 | 3706 ft | 204 kts | 310° |
| 2026-05-05 00:43 | 42.53238 | -70.82542 | 3505 ft | 197 kts | 311° |
| 2026-05-05 00:43 | 42.54222 | -70.83772 | 3336 ft | 188 kts | 310° |
| 2026-05-05 00:43 | 42.55010 | -70.85068 | 3177 ft | 170 kts | 281° |
| 2026-05-05 00:43 | 42.55073 | -70.85588 | 3135 ft | 163 kts | 265° |
| 2026-05-05 00:44 | 42.53537 | -70.89027 | 2979 ft | 157 kts | 236° |
| 2026-05-05 00:44 | 42.52937 | -70.90214 | 2955 ft | 148 kts | 235° |
| 2026-05-05 00:44 | 42.52349 | -70.91338 | 2948 ft | 147 kts | 235° |
| 2026-05-05 00:45 | 42.51741 | -70.92462 | 2924 ft | 153 kts | 226° |
| 2026-05-05 00:45 | 42.50818 | -70.93133 | 2782 ft | 147 kts | 208° |
| 2026-05-05 00:45 | 42.49914 | -70.93715 | 2608 ft | 144 kts | 211° |
| 2026-05-05 00:45 | 42.49041 | -70.94349 | 2437 ft | 141 kts | 208° |
| 2026-05-05 00:46 | 42.48442 | -70.94683 | 2297 ft | 142 kts | 205° |
| 2026-05-05 00:46 | 42.46430 | -70.95682 | 1890 ft | 130 kts | 206° |
| 2026-05-05 00:46 | 42.45593 | -70.96091 | 1731 ft | 127 kts | 206° |
| 2026-05-05 00:47 | 42.44770 | -70.96492 | 1570 ft | 125 kts | 206° |
| 2026-05-05 00:47 | 42.43960 | -70.96887 | 1419 ft | 122 kts | 205° |
| 2026-05-05 00:47 | 42.43142 | -70.97281 | 1231 ft | 125 kts | 204° |
| 2026-05-05 00:47 | 42.42319 | -70.97674 | 1065 ft | 127 kts | 204° |
| 2026-05-05 00:48 | 42.41474 | -70.98095 | 887 ft | 132 kts | 203° |
| 2026-05-05 00:48 | 42.40597 | -70.98528 | 718 ft | 137 kts | 201° |
| 2026-05-05 00:48 | 42.39700 | -70.98949 | 567 ft | 137 kts | 200° |
| 2026-05-05 00:48 | 42.38805 | -70.99394 | 367 ft | 136 kts | 199° |
| 2026-05-05 00:49 | 42.37924 | -70.99817 | 166 ft | 134 kts | 199° |
| 2026-05-05 00:49 | 42.37069 | -71.00238 | 27 ft | 125 kts | 199° |
| 2026-05-05 00:49 | 42.36410 | -71.00555 | 26 ft | 71 kts | 199° |
| 2026-05-05 00:49 | 42.36166 | -71.00693 | 26 ft | 23 kts | 230° |
| 2026-05-05 00:50 | 42.36175 | -71.00889 | 27 ft | 22 kts | 295° |
| 2026-05-05 00:50 | 42.36211 | -71.00998 | 26 ft | 6 kts | 289° |
| 2026-05-05 00:50 | 42.36203 | -71.01046 | 27 ft | 3 kts | 220° |
| 2026-05-05 00:50 | 42.36200 | -71.01049 | 26 ft | 2 kts | 211° |
| 2026-05-05 00:51 | 42.36172 | -71.01058 | 26 ft | 6 kts | 191° |
| 2026-05-05 00:51 | 42.36123 | -71.01083 | 26 ft | 9 kts | 201° |
| 2026-05-05 00:51 | 42.36067 | -71.01112 | 25 ft | 9 kts | 200° |
| 2026-05-05 00:51 | 42.36012 | -71.01138 | 26 ft | 8 kts | 199° |
| 2026-05-05 00:52 | 42.35958 | -71.01164 | 26 ft | 8 kts | 199° |
| 2026-05-05 00:52 | 42.35906 | -71.01189 | 25 ft | 8 kts | 199° |
| 2026-05-05 00:52 | 42.35858 | -71.01218 | 24 ft | 8 kts | 220° |
| 2026-05-05 00:52 | 42.35848 | -71.01276 | 27 ft | 6 kts | 278° |
| 2026-05-05 00:53 | 42.35854 | -71.01328 | 25 ft | 6 kts | 278° |
| 2026-05-05 00:53 | 42.35862 | -71.01406 | 27 ft | 10 kts | 278° |
| 2026-05-05 00:53 | 42.35876 | -71.01499 | 27 ft | 10 kts | 283° |
| 2026-05-05 00:53 | 42.35893 | -71.01588 | 26 ft | 10 kts | 284° |
| 2026-05-05 00:54 | 42.35896 | -71.01602 | 27 ft | 0 kts | 287° |
| 2026-05-05 00:54 | 42.35897 | -71.01604 | 27 ft | 1 kts | 287° |
| 2026-05-05 00:54 | 42.35901 | -71.01631 | 25 ft | 6 kts | 280° |
| 2026-05-05 00:54 | 42.35907 | -71.01718 | 26 ft | 12 kts | 278° |
| 2026-05-05 00:55 | 42.35925 | -71.01827 | 27 ft | 12 kts | 292° |
| 2026-05-05 00:55 | 42.35962 | -71.01903 | 27 ft | 6 kts | 342° |
| 2026-05-05 00:55 | 42.36002 | -71.01880 | 29 ft | 6 kts | 31° |
| 2026-05-05 00:55 | 42.36016 | -71.01870 | 25 ft | 2 kts | 30° |
| 2026-05-05 00:56 | 42.36017 | -71.01869 | 25 ft | 0 kts | 30° |